Terminal Aerodrome Forecast
Issued by NWS

Home | Current Version | Previous Version | Text Only | Print | Product List | Glossary On
Versions: 1 2 3 4 5 6 7 8 9 10 11 12 13 14 15 16 17 18 19 20
000
FTUS41 KGYX 112341
TAFHIE
TAF
KHIE 112341Z 1200/1224 00000KT P6SM SKC
     FM121200 11007KT P6SM OVC016
     FM121300 11008KT 3/4SM -SN OVC012
     FM121500 11009KT 1/2SM SN OVC008
     FM121800 12010G19KT 1/2SM SN OVC008 WS020/13040KT=

USA.gov is the U.S. government's official web portal to all federal, state and local government web resources and services.